createdAt,value
2023-03-03T00:01:04.468Z,73.93
2023-03-03T00:02:05.931Z,73.80
2023-03-03T00:03:10.071Z,73.87
2023-03-03T00:04:12.659Z,74.21
2023-03-03T00:05:16.314Z,74.30
2023-03-03T00:06:18.603Z,74.24
2023-03-03T00:07:22.447Z,73.95
2023-03-03T00:08:24.070Z,74.12
2023-03-03T00:09:25.798Z,74.14
2023-03-03T00:10:27.926Z,73.93
2023-03-03T00:11:29.515Z,73.72
2023-03-03T00:12:31.237Z,73.82
2023-03-03T00:13:41.018Z,73.57
2023-03-03T00:14:42.609Z,73.59
2023-03-03T00:15:44.500Z,73.81
2023-03-03T00:16:48.488Z,73.61
2023-03-03T00:17:51.253Z,73.73
2023-03-03T00:18:54.315Z,73.71
2023-03-03T00:19:56.154Z,73.48
2023-03-03T00:21:02.690Z,73.48
2023-03-03T00:22:16.240Z,74.00
2023-03-03T00:23:23.562Z,74.05
2023-03-03T00:24:36.755Z,73.94
2023-03-03T00:25:40.764Z,73.92
2023-03-03T00:26:46.401Z,73.43
2023-03-03T00:27:48.034Z,73.66
2023-03-03T00:28:51.900Z,73.78
2023-03-03T00:29:55.994Z,73.84
2023-03-03T00:31:06.139Z,73.85
2023-03-03T00:32:43.645Z,73.76
2023-03-03T00:33:54.004Z,73.63
2023-03-03T00:35:17.151Z,73.58
2023-03-03T00:36:31.079Z,73.58
2023-03-03T00:37:35.626Z,73.80
2023-03-03T00:38:37.213Z,73.62
2023-03-03T00:39:39.200Z,73.75
2023-03-03T00:40:40.973Z,73.62
2023-03-03T00:41:42.704Z,73.51
2023-03-03T00:42:48.860Z,73.19
2023-03-03T00:43:51.136Z,73.20
2023-03-03T00:44:57.256Z,73.52
2023-03-03T00:45:58.889Z,73.52
2023-03-03T00:47:27.746Z,73.40
2023-03-03T00:48:42.313Z,73.49
2023-03-03T00:49:43.822Z,73.66
2023-03-03T00:50:45.537Z,73.37
2023-03-03T00:51:47.096Z,73.64
2023-03-03T00:53:00.638Z,73.72
2023-03-03T00:54:02.467Z,73.72
2023-03-03T00:55:05.664Z,73.81
2023-03-03T00:56:07.647Z,73.76
2023-03-03T00:57:11.906Z,73.34
2023-03-03T00:58:14.453Z,73.45
2023-03-03T00:59:17.342Z,73.55
2023-03-03T01:00:19.840Z,73.65
2023-03-03T01:01:21.637Z,73.45
2023-03-03T01:02:25.826Z,73.35
2023-03-03T01:03:27.450Z,73.51
2023-03-03T01:04:29.124Z,73.64
2023-03-03T01:05:30.658Z,73.52
2023-03-03T01:06:32.191Z,73.41
2023-03-03T01:07:34.090Z,73.58
2023-03-03T01:08:36.289Z,73.52
2023-03-03T01:09:37.801Z,73.72
2023-03-03T01:10:51.477Z,73.59
2023-03-03T01:11:54.149Z,73.79
2023-03-03T01:12:57.590Z,73.93
2023-03-03T01:13:59.014Z,73.86
2023-03-03T01:15:01.907Z,73.73
2023-03-03T01:16:04.146Z,73.72
2023-03-03T01:17:05.906Z,73.35
2023-03-03T01:18:08.739Z,73.40
2023-03-03T01:19:10.428Z,73.32
2023-03-03T01:20:13.742Z,73.75
2023-03-03T01:21:15.201Z,73.93
2023-03-03T01:22:16.665Z,73.74
2023-03-03T01:23:18.157Z,73.35
2023-03-03T01:24:20.348Z,73.49
2023-03-03T01:25:22.057Z,73.57
2023-03-03T01:26:23.484Z,73.60
2023-03-03T01:27:25.108Z,73.67
2023-03-03T01:28:26.908Z,73.56
2023-03-03T01:29:28.457Z,73.69
2023-03-03T01:30:30.736Z,73.49
2023-03-03T01:31:32.337Z,73.61
2023-03-03T01:32:34.336Z,73.41
2023-03-03T01:33:35.877Z,73.61
2023-03-03T01:34:37.586Z,73.52
2023-03-03T01:35:44.622Z,73.55
2023-03-03T01:36:46.125Z,73.69
2023-03-03T01:37:47.998Z,73.55
2023-03-03T01:38:49.511Z,73.57
2023-03-03T01:39:52.409Z,73.65
2023-03-03T01:40:58.871Z,73.57
2023-03-03T01:42:02.370Z,73.46
2023-03-03T01:43:04.454Z,73.66
2023-03-03T01:44:06.020Z,73.72
2023-03-03T01:45:17.602Z,73.72
2023-03-03T01:46:29.462Z,73.68
2023-03-03T01:47:33.393Z,73.90
2023-03-03T01:48:41.978Z,73.64
2023-03-03T01:49:58.030Z,74.25
2023-03-03T01:51:21.869Z,74.20
2023-03-03T01:52:35.357Z,74.07
2023-03-03T01:53:46.233Z,74.00
2023-03-03T01:54:52.646Z,73.76
2023-03-03T01:55:54.335Z,74.09
2023-03-03T01:57:02.266Z,74.11
2023-03-03T01:58:29.429Z,74.06
2023-03-03T01:59:35.396Z,74.08
2023-03-03T02:00:40.541Z,73.99
2023-03-03T02:01:42.124Z,74.12
2023-03-03T02:02:45.204Z,74.15
2023-03-03T02:03:47.785Z,74.42
2023-03-03T02:04:49.972Z,74.49
2023-03-03T02:05:55.259Z,74.82
2023-03-03T02:07:09.334Z,74.64
2023-03-03T02:08:14.465Z,74.77
2023-03-03T02:09:40.597Z,74.75
2023-03-03T02:10:44.206Z,74.47
2023-03-03T02:11:48.358Z,74.69
2023-03-03T02:12:52.765Z,74.70
2023-03-03T02:14:03.794Z,74.91
2023-03-03T02:15:26.834Z,74.77
2023-03-03T02:16:28.732Z,74.59
2023-03-03T02:17:30.193Z,74.66
2023-03-03T02:18:31.765Z,74.68
2023-03-03T02:19:50.373Z,74.95
2023-03-03T02:21:06.528Z,75.13
2023-03-03T02:22:08.517Z,74.70
2023-03-03T02:23:12.527Z,75.02
2023-03-03T02:24:38.010Z,74.59
2023-03-03T02:25:59.074Z,74.97
2023-03-03T02:27:01.306Z,74.92
2023-03-03T02:28:03.458Z,74.99
2023-03-03T02:29:05.635Z,75.09
2023-03-03T02:30:15.317Z,74.74
2023-03-03T02:31:36.667Z,74.81
2023-03-03T02:32:38.628Z,74.76
2023-03-03T02:33:44.753Z,74.80
2023-03-03T02:34:51.216Z,74.92
2023-03-03T02:35:53.582Z,75.10
2023-03-03T02:36:55.044Z,74.74
2023-03-03T02:38:04.101Z,74.93
2023-03-03T02:39:15.734Z,74.94
2023-03-03T02:40:23.777Z,74.76
2023-03-03T02:41:38.337Z,75.05
2023-03-03T02:42:42.487Z,74.73
2023-03-03T02:44:03.492Z,75.03
2023-03-03T02:45:05.975Z,75.19
2023-03-03T02:46:07.665Z,75.47
2023-03-03T02:47:09.272Z,75.01
2023-03-03T02:48:10.793Z,75.18
2023-03-03T02:49:19.467Z,74.85
2023-03-03T02:50:21.107Z,74.76
2023-03-03T02:51:22.872Z,75.05
2023-03-03T02:52:24.309Z,75.13
2023-03-03T02:53:25.908Z,75.07
2023-03-03T02:54:32.582Z,75.23
2023-03-03T02:55:34.689Z,74.89
2023-03-03T02:56:36.591Z,75.20
2023-03-03T02:57:38.461Z,75.78
2023-03-03T02:58:39.938Z,75.45
2023-03-03T02:59:42.141Z,75.74
2023-03-03T03:00:49.323Z,75.24
2023-03-03T03:01:53.880Z,75.36
2023-03-03T03:02:55.520Z,75.52
2023-03-03T03:03:57.964Z,75.69
2023-03-03T03:04:59.549Z,75.53
2023-03-03T03:06:01.682Z,75.60
2023-03-03T03:07:03.058Z,75.46
2023-03-03T03:08:06.086Z,75.69
2023-03-03T03:09:09.425Z,75.40
2023-03-03T03:10:10.959Z,75.62
2023-03-03T03:11:13.141Z,75.54
2023-03-03T03:12:15.347Z,75.54
2023-03-03T03:13:17.161Z,75.86
2023-03-03T03:14:19.404Z,75.89
2023-03-03T03:15:20.953Z,76.44
2023-03-03T03:16:22.747Z,75.86
2023-03-03T03:17:24.161Z,75.76
2023-03-03T03:18:27.312Z,76.32
2023-03-03T03:19:29.779Z,76.22
2023-03-03T03:20:39.394Z,75.66
2023-03-03T03:21:41.026Z,75.96
2023-03-03T03:22:42.561Z,76.24
2023-03-03T03:23:44.481Z,76.17
2023-03-03T03:24:46.389Z,76.68
2023-03-03T03:25:48.474Z,76.14
2023-03-03T03:26:56.292Z,76.12
2023-03-03T03:27:58.110Z,76.16
2023-03-03T03:28:59.649Z,76.34
2023-03-03T03:30:01.404Z,76.58
2023-03-03T03:31:05.992Z,76.39
2023-03-03T03:32:08.114Z,76.04
2023-03-03T03:33:11.153Z,76.13
2023-03-03T03:34:12.962Z,76.45
2023-03-03T03:35:16.511Z,76.63
2023-03-03T03:36:18.327Z,76.35
2023-03-03T03:37:20.618Z,76.74
2023-03-03T03:38:23.715Z,76.49
2023-03-03T03:39:25.282Z,76.62
2023-03-03T03:40:27.235Z,76.62
2023-03-03T03:41:28.715Z,76.39
2023-03-03T03:42:30.490Z,76.30
2023-03-03T03:43:32.657Z,76.66
2023-03-03T03:44:35.551Z,76.89
2023-03-03T03:45:39.144Z,76.72
2023-03-03T03:46:41.758Z,76.88
2023-03-03T03:47:44.913Z,76.74
2023-03-03T03:48:46.556Z,76.72
2023-03-03T03:49:48.261Z,77.17
2023-03-03T03:50:50.272Z,76.94
2023-03-03T03:51:52.539Z,76.93
2023-03-03T03:52:55.650Z,77.19
2023-03-03T03:53:57.042Z,76.96
2023-03-03T03:54:58.858Z,77.03
2023-03-03T03:56:00.346Z,76.98
2023-03-03T03:57:02.098Z,76.78
2023-03-03T03:58:04.024Z,76.78
2023-03-03T03:59:07.179Z,76.83
2023-03-03T04:00:10.391Z,76.83
2023-03-03T04:01:19.821Z,76.58
2023-03-03T04:02:23.000Z,76.87
2023-03-03T04:03:26.537Z,76.83
2023-03-03T04:04:28.245Z,76.88
2023-03-03T04:05:31.298Z,76.82
2023-03-03T04:06:32.778Z,76.72
2023-03-03T04:07:34.438Z,76.68
2023-03-03T04:08:36.408Z,76.52
2023-03-03T04:09:38.487Z,76.28
2023-03-03T04:10:40.147Z,76.60
2023-03-03T04:11:41.680Z,76.94
2023-03-03T04:12:44.508Z,76.62
2023-03-03T04:13:47.869Z,76.73
2023-03-03T04:14:49.555Z,77.03
2023-03-03T04:15:51.604Z,76.47
2023-03-03T04:16:53.195Z,76.81
2023-03-03T04:17:55.695Z,76.71
2023-03-03T04:18:57.264Z,76.42
2023-03-03T04:19:59.217Z,76.31
2023-03-03T04:21:00.670Z,76.38
2023-03-03T04:22:02.585Z,76.31
2023-03-03T04:23:05.401Z,76.39
2023-03-03T04:24:07.754Z,76.62
2023-03-03T04:25:13.996Z,76.36
2023-03-03T04:26:17.497Z,76.19
2023-03-03T04:27:19.162Z,76.26
2023-03-03T04:28:21.576Z,76.25
2023-03-03T04:29:24.826Z,76.51
2023-03-03T04:30:26.485Z,76.32
2023-03-03T04:31:29.480Z,76.43
2023-03-03T04:32:33.087Z,76.23
2023-03-03T04:33:35.630Z,76.13
2023-03-03T04:34:37.838Z,76.17
2023-03-03T04:35:40.501Z,76.30
2023-03-03T04:36:42.485Z,76.23
2023-03-03T04:37:43.975Z,76.30
2023-03-03T04:38:45.911Z,76.47
2023-03-03T04:39:48.181Z,76.56
2023-03-03T04:40:49.729Z,76.36
2023-03-03T04:41:51.544Z,76.25
2023-03-03T04:42:53.442Z,76.37
2023-03-03T04:43:54.925Z,76.10
2023-03-03T04:44:56.590Z,76.14
2023-03-03T04:45:58.250Z,76.11
2023-03-03T04:46:59.804Z,76.23
2023-03-03T04:48:01.323Z,76.14
2023-03-03T04:49:03.719Z,76.01
2023-03-03T04:50:06.560Z,76.15
2023-03-03T04:51:08.224Z,76.07
2023-03-03T04:52:10.844Z,76.16
2023-03-03T04:53:12.561Z,76.15
2023-03-03T04:54:15.204Z,76.16
2023-03-03T04:55:17.214Z,76.18
2023-03-03T04:56:20.471Z,76.08
2023-03-03T04:57:23.714Z,76.04
2023-03-03T04:58:26.043Z,76.38
2023-03-03T04:59:27.690Z,76.25
2023-03-03T05:00:29.302Z,76.29
2023-03-03T05:01:30.908Z,76.54
2023-03-03T05:02:32.522Z,76.50
2023-03-03T05:03:34.314Z,76.15
2023-03-03T05:04:36.106Z,76.14
2023-03-03T05:05:37.694Z,76.20
2023-03-03T05:06:40.221Z,76.17
2023-03-03T05:07:41.647Z,76.28
2023-03-03T05:08:43.072Z,76.23
2023-03-03T05:09:44.454Z,76.43
2023-03-03T05:10:45.908Z,76.37
2023-03-03T05:11:47.402Z,76.33
2023-03-03T05:12:49.085Z,76.50
2023-03-03T05:13:50.734Z,76.37
2023-03-03T05:14:52.222Z,76.41
2023-03-03T05:15:55.149Z,76.35
2023-03-03T05:16:56.835Z,76.52
2023-03-03T05:17:58.282Z,76.22
2023-03-03T05:18:59.733Z,76.24
2023-03-03T05:20:01.221Z,76.11
2023-03-03T05:21:02.990Z,76.17
2023-03-03T05:22:04.455Z,76.19
2023-03-03T05:23:06.516Z,76.13
2023-03-03T05:24:12.439Z,76.11
2023-03-03T05:25:14.108Z,76.06
2023-03-03T05:26:16.208Z,76.21
2023-03-03T05:27:17.916Z,76.34
2023-03-03T05:28:19.523Z,76.09
2023-03-03T05:29:21.018Z,76.22
2023-03-03T05:30:22.535Z,76.00
2023-03-03T05:31:26.496Z,75.98
2023-03-03T05:32:27.977Z,75.99
2023-03-03T05:33:29.489Z,76.17
2023-03-03T05:34:30.980Z,76.16
2023-03-03T05:35:33.283Z,76.20
2023-03-03T05:36:34.795Z,76.19
2023-03-03T05:37:36.319Z,75.98
2023-03-03T05:38:37.960Z,76.16
2023-03-03T05:39:39.504Z,76.03
2023-03-03T05:40:40.982Z,75.96
2023-03-03T05:41:42.515Z,75.92
2023-03-03T05:42:44.612Z,76.00
2023-03-03T05:43:46.178Z,75.85
2023-03-03T05:44:47.657Z,75.85
2023-03-03T05:45:57.739Z,75.87
2023-03-03T05:46:59.423Z,75.86
2023-03-03T05:48:01.064Z,76.00
2023-03-03T05:49:02.649Z,75.95
2023-03-03T05:50:04.792Z,75.88
2023-03-03T05:51:06.335Z,75.81
2023-03-03T05:52:08.429Z,75.75
2023-03-03T05:53:09.948Z,75.75
2023-03-03T05:54:11.448Z,75.85
2023-03-03T05:55:12.960Z,75.77
2023-03-03T05:56:14.459Z,75.92
2023-03-03T05:57:15.943Z,75.88
2023-03-03T05:58:17.748Z,75.88
2023-03-03T05:59:19.984Z,75.75
2023-03-03T06:00:22.188Z,75.80
2023-03-03T06:01:23.670Z,75.82
2023-03-03T06:02:25.169Z,75.59
2023-03-03T06:03:26.748Z,75.58
2023-03-03T06:04:28.281Z,75.56
2023-03-03T06:05:29.806Z,75.54
2023-03-03T06:06:31.825Z,75.46
2023-03-03T06:07:33.443Z,75.36
2023-03-03T06:08:35.002Z,75.36
2023-03-03T06:09:36.556Z,75.35
2023-03-03T06:10:38.093Z,75.31
2023-03-03T06:11:39.843Z,75.12
2023-03-03T06:12:41.578Z,74.86
2023-03-03T06:13:43.018Z,74.67
2023-03-03T06:14:44.743Z,74.51
2023-03-03T06:15:46.576Z,74.37
2023-03-03T06:16:48.469Z,74.32
2023-03-03T06:17:50.113Z,74.19
2023-03-03T06:18:51.647Z,73.88
2023-03-03T06:19:53.251Z,73.95
2023-03-03T06:20:55.176Z,73.79
2023-03-03T06:21:59.507Z,73.79
2023-03-03T06:23:02.234Z,73.77
2023-03-03T06:24:04.166Z,73.75
2023-03-03T06:25:05.987Z,73.61
2023-03-03T06:26:07.576Z,73.49
2023-03-03T06:27:09.920Z,73.42
2023-03-03T06:28:12.647Z,73.41
2023-03-03T06:29:15.832Z,73.26
2023-03-03T06:30:18.381Z,73.24
2023-03-03T06:31:20.260Z,73.18
2023-03-03T06:32:21.933Z,73.18
2023-03-03T06:33:23.513Z,73.17
2023-03-03T06:34:25.315Z,72.97
2023-03-03T06:35:27.022Z,73.03
2023-03-03T06:36:28.512Z,72.85
2023-03-03T06:37:30.213Z,72.91
2023-03-03T06:38:31.720Z,72.87
2023-03-03T06:39:33.314Z,72.88
2023-03-03T06:40:34.815Z,72.76
2023-03-03T06:41:36.545Z,72.81
2023-03-03T06:42:38.238Z,72.79
2023-03-03T06:43:39.807Z,72.75
2023-03-03T06:44:41.373Z,72.59
2023-03-03T06:45:45.644Z,72.45
2023-03-03T06:46:47.270Z,72.19
2023-03-03T06:47:49.090Z,72.31
2023-03-03T06:48:50.609Z,72.38
2023-03-03T06:49:52.103Z,72.63
2023-03-03T06:50:53.800Z,72.46
2023-03-03T06:52:09.394Z,71.70
2023-03-03T06:53:15.656Z,71.99
2023-03-03T06:54:27.334Z,71.64
2023-03-03T06:55:30.083Z,70.37
2023-03-03T06:56:36.196Z,70.71
2023-03-03T06:57:37.811Z,70.09
2023-03-03T06:58:39.366Z,69.95
2023-03-03T06:59:41.051Z,69.36
2023-03-03T07:00:44.856Z,69.54
2023-03-03T07:01:48.632Z,69.39
2023-03-03T07:03:05.341Z,69.42
2023-03-03T07:04:28.370Z,69.44
2023-03-03T07:05:29.976Z,68.97
2023-03-03T07:06:31.701Z,68.95
2023-03-03T07:07:33.405Z,68.94
2023-03-03T07:08:35.697Z,68.78
2023-03-03T07:09:37.496Z,68.83
2023-03-03T07:10:39.200Z,68.59
2023-03-03T07:11:41.176Z,68.66
2023-03-03T07:12:42.869Z,67.95
2023-03-03T07:13:47.637Z,68.53
2023-03-03T07:14:58.922Z,68.53
2023-03-03T07:16:08.642Z,68.33
2023-03-03T07:17:17.073Z,68.09
2023-03-03T07:18:38.710Z,68.01
2023-03-03T07:19:40.612Z,67.93
2023-03-03T07:20:42.872Z,67.21
2023-03-03T07:21:44.589Z,67.50
2023-03-03T07:22:46.872Z,66.76
2023-03-03T07:23:50.881Z,66.96
2023-03-03T07:24:56.935Z,66.57
2023-03-03T07:25:58.727Z,66.49
2023-03-03T07:27:31.918Z,66.45
2023-03-03T07:28:41.038Z,67.02
2023-03-03T07:29:42.776Z,67.12
2023-03-03T07:30:44.306Z,66.67
2023-03-03T07:31:48.260Z,66.80
2023-03-03T07:32:53.362Z,66.88
2023-03-03T07:33:56.793Z,66.75
2023-03-03T07:34:58.258Z,67.02
2023-03-03T07:36:01.942Z,67.19
2023-03-03T07:37:13.400Z,67.24
2023-03-03T07:38:24.099Z,66.74
2023-03-03T07:39:40.251Z,66.83
2023-03-03T07:40:48.909Z,66.55
2023-03-03T07:41:51.355Z,66.34
2023-03-03T07:42:52.915Z,65.89
2023-03-03T07:44:31.118Z,65.50
2023-03-03T07:45:37.197Z,65.79
2023-03-03T07:46:43.061Z,65.71
2023-03-03T07:47:44.526Z,66.16
2023-03-03T07:48:46.247Z,66.06
2023-03-03T07:49:49.654Z,66.00
2023-03-03T07:50:51.837Z,66.21
2023-03-03T07:51:57.000Z,66.20
2023-03-03T07:52:59.857Z,66.14
2023-03-03T07:54:20.098Z,66.16
2023-03-03T07:55:36.696Z,66.00
2023-03-03T07:56:38.248Z,65.84
2023-03-03T07:57:40.081Z,66.07
2023-03-03T07:58:42.422Z,65.95
2023-03-03T07:59:47.980Z,65.58
2023-03-03T08:01:22.771Z,65.48
2023-03-03T08:02:36.511Z,65.31
2023-03-03T08:03:38.124Z,65.63
2023-03-03T08:04:50.107Z,65.29
2023-03-03T08:05:52.020Z,64.61
2023-03-03T08:06:56.881Z,64.95
2023-03-03T08:08:29.554Z,64.62
2023-03-03T08:09:43.511Z,64.72
2023-03-03T08:10:55.805Z,64.65
2023-03-03T08:12:09.906Z,64.54
2023-03-03T08:13:20.729Z,64.50
2023-03-03T08:14:28.945Z,64.82
2023-03-03T08:15:37.511Z,64.68
2023-03-03T08:16:39.909Z,64.64
2023-03-03T08:17:42.648Z,64.77
2023-03-03T08:18:47.052Z,64.71
2023-03-03T08:19:54.114Z,64.67
2023-03-03T08:21:00.822Z,64.68
2023-03-03T08:22:13.229Z,64.55
2023-03-03T08:23:17.277Z,64.64
2023-03-03T08:24:18.758Z,64.73
2023-03-03T08:25:20.421Z,64.80
2023-03-03T08:26:23.750Z,64.84
2023-03-03T08:27:25.729Z,64.92
2023-03-03T08:28:27.452Z,64.83
2023-03-03T08:29:29.362Z,64.89
2023-03-03T08:30:31.523Z,64.78
2023-03-03T08:31:41.162Z,64.77
2023-03-03T08:32:43.808Z,64.75
2023-03-03T08:33:46.263Z,64.68
2023-03-03T08:34:47.794Z,64.56
2023-03-03T08:35:49.431Z,64.29
2023-03-03T08:36:51.092Z,64.13
2023-03-03T08:37:53.428Z,63.75
2023-03-03T08:38:55.946Z,63.42
2023-03-03T08:39:57.449Z,63.43
2023-03-03T08:40:59.738Z,63.21
2023-03-03T08:42:01.419Z,63.52
2023-03-03T08:43:03.205Z,63.27
2023-03-03T08:44:05.040Z,63.20
2023-03-03T08:45:06.756Z,63.00
2023-03-03T08:46:09.659Z,62.28
2023-03-03T08:47:11.498Z,62.48
2023-03-03T08:48:14.013Z,61.88
2023-03-03T08:49:15.722Z,62.10
2023-03-03T08:50:17.813Z,61.98
2023-03-03T08:51:19.489Z,62.21
2023-03-03T08:52:21.272Z,62.37
2023-03-03T08:53:23.625Z,62.70
2023-03-03T08:54:25.370Z,62.89
2023-03-03T08:55:26.884Z,62.76
2023-03-03T08:56:28.463Z,62.56
2023-03-03T08:57:30.514Z,62.76
2023-03-03T08:58:35.563Z,62.40
2023-03-03T08:59:38.440Z,62.62
2023-03-03T09:00:40.275Z,62.27
2023-03-03T09:01:43.998Z,61.55
2023-03-03T09:02:45.941Z,61.88
2023-03-03T09:03:48.614Z,61.96
2023-03-03T09:04:50.662Z,61.53
2023-03-03T09:05:52.597Z,61.51
2023-03-03T09:06:54.708Z,61.40
2023-03-03T09:07:56.244Z,61.67
2023-03-03T09:08:57.775Z,61.28
2023-03-03T09:09:59.696Z,61.37
2023-03-03T09:11:01.691Z,61.30
2023-03-03T09:12:15.371Z,60.94
2023-03-03T09:13:19.428Z,61.63
2023-03-03T09:14:21.016Z,61.77
2023-03-03T09:15:31.760Z,61.52
2023-03-03T09:16:38.384Z,61.65
2023-03-03T09:17:40.484Z,61.88
2023-03-03T09:18:43.445Z,61.92
2023-03-03T09:19:45.761Z,61.62
2023-03-03T09:20:52.296Z,61.53
2023-03-03T09:21:56.707Z,61.76
2023-03-03T09:23:16.130Z,61.58
2023-03-03T09:24:26.719Z,61.16
2023-03-03T09:25:35.884Z,61.12
2023-03-03T09:26:47.014Z,61.27
2023-03-03T09:27:48.507Z,60.56
2023-03-03T09:28:50.541Z,60.76
2023-03-03T09:29:52.034Z,60.33
2023-03-03T09:30:56.755Z,60.32
2023-03-03T09:32:19.640Z,60.24
2023-03-03T09:33:41.470Z,60.39
2023-03-03T09:34:43.004Z,60.68
2023-03-03T09:35:45.455Z,60.64
2023-03-03T09:36:48.729Z,60.24
2023-03-03T09:37:50.901Z,60.56
2023-03-03T09:38:53.521Z,60.43
2023-03-03T09:39:59.526Z,60.34
2023-03-03T09:41:04.134Z,60.73
2023-03-03T09:42:05.686Z,61.03
2023-03-03T09:43:23.480Z,61.01
2023-03-03T09:45:01.967Z,61.07
2023-03-03T09:46:26.442Z,61.19
2023-03-03T09:47:56.434Z,61.18
2023-03-03T09:49:03.687Z,60.77
2023-03-03T09:50:12.317Z,60.55
2023-03-03T09:51:40.961Z,60.67
2023-03-03T09:52:57.777Z,60.50
2023-03-03T09:54:32.134Z,60.52
2023-03-03T09:55:44.975Z,60.89
2023-03-03T09:56:53.808Z,60.60
2023-03-03T09:58:10.021Z,60.49
2023-03-03T09:59:23.430Z,60.63
2023-03-03T10:00:39.229Z,60.58
2023-03-03T10:01:58.797Z,60.78
2023-03-03T10:03:14.668Z,60.80
2023-03-03T10:04:37.870Z,60.94
2023-03-03T10:06:14.759Z,61.08
2023-03-03T10:07:19.041Z,60.86
2023-03-03T10:08:48.532Z,60.71
2023-03-03T10:10:18.672Z,60.53
2023-03-03T10:11:44.344Z,60.25
2023-03-03T10:13:06.580Z,60.16
2023-03-03T10:14:23.416Z,59.98
2023-03-03T10:15:29.241Z,59.55
2023-03-03T10:16:51.902Z,59.06
2023-03-03T10:18:03.665Z,59.39
2023-03-03T10:19:42.685Z,60.10
2023-03-03T10:21:07.108Z,60.07
2023-03-03T10:22:48.594Z,61.05
2023-03-03T10:23:57.611Z,62.04
2023-03-03T10:25:19.850Z,61.55
2023-03-03T10:27:11.930Z,62.27
2023-03-03T10:28:35.546Z,62.58
2023-03-03T10:29:49.144Z,63.11
2023-03-03T10:31:10.081Z,62.92
2023-03-03T10:32:34.860Z,62.74
2023-03-03T10:33:45.383Z,62.11
2023-03-03T10:35:07.660Z,61.80
2023-03-03T10:36:30.734Z,61.69
2023-03-03T10:37:47.567Z,61.20
2023-03-03T10:38:54.944Z,60.72
2023-03-03T10:40:14.865Z,60.09
2023-03-03T10:41:19.364Z,59.88
2023-03-03T10:42:36.042Z,59.44
2023-03-03T10:43:47.961Z,59.48
2023-03-03T10:45:07.744Z,59.56
2023-03-03T10:46:24.964Z,60.12
2023-03-03T10:47:37.951Z,60.13
2023-03-03T10:49:02.233Z,60.44
2023-03-03T10:50:28.534Z,61.39
2023-03-03T10:51:58.901Z,61.71
2023-03-03T10:53:19.198Z,61.83
2023-03-03T10:54:21.025Z,61.32
2023-03-03T10:55:40.481Z,61.86
2023-03-03T10:56:53.960Z,62.10
2023-03-03T10:58:10.657Z,62.55
2023-03-03T10:59:25.546Z,62.77
2023-03-03T11:00:42.933Z,62.51
2023-03-03T11:01:52.573Z,62.12
2023-03-03T11:03:20.400Z,61.66
2023-03-03T11:04:51.574Z,60.50
2023-03-03T11:06:47.025Z,59.80
2023-03-03T11:08:02.090Z,58.92
2023-03-03T11:09:21.595Z,58.60
2023-03-03T11:10:41.651Z,58.65
2023-03-03T11:11:43.236Z,58.49
2023-03-03T11:12:56.462Z,59.17
2023-03-03T11:14:04.050Z,59.25
2023-03-03T11:15:08.588Z,59.14
2023-03-03T11:16:31.428Z,59.14
2023-03-03T11:17:36.045Z,59.24
2023-03-03T11:19:07.508Z,59.69
2023-03-03T11:20:38.266Z,59.29
2023-03-03T11:21:48.678Z,60.68
2023-03-03T11:23:20.724Z,60.92
2023-03-03T11:24:28.327Z,60.58
2023-03-03T11:25:37.752Z,60.30
2023-03-03T11:26:51.100Z,59.60
2023-03-03T11:28:04.796Z,59.12
2023-03-03T11:29:29.510Z,59.25
2023-03-03T11:30:48.528Z,59.55
2023-03-03T11:32:01.158Z,59.74
2023-03-03T11:33:17.997Z,59.58
2023-03-03T11:34:22.357Z,59.29
2023-03-03T11:35:42.545Z,59.46
2023-03-03T11:36:57.169Z,59.48
2023-03-03T11:38:31.005Z,59.75
2023-03-03T11:39:32.872Z,59.60
2023-03-03T11:40:48.018Z,59.33
2023-03-03T11:42:01.417Z,58.46
2023-03-03T11:43:34.137Z,59.12
2023-03-03T11:44:43.469Z,59.73
2023-03-03T11:45:51.117Z,59.62
2023-03-03T11:47:22.311Z,58.58
2023-03-03T11:48:37.611Z,57.13
2023-03-03T11:49:46.913Z,55.52
2023-03-03T11:51:06.692Z,54.68
2023-03-03T11:52:24.452Z,54.04
2023-03-03T11:53:47.214Z,53.19
2023-03-03T11:55:02.096Z,53.36
2023-03-03T11:56:29.277Z,52.09
2023-03-03T11:57:50.183Z,52.10
2023-03-03T11:59:31.153Z,52.48
2023-03-03T12:00:40.832Z,53.01
2023-03-03T12:01:49.986Z,53.51
2023-03-03T12:03:04.704Z,53.85
2023-03-03T12:04:13.398Z,52.83
2023-03-03T12:05:46.149Z,52.56
2023-03-03T12:06:47.886Z,52.68
2023-03-03T12:08:03.356Z,51.70
2023-03-03T12:09:25.275Z,52.01
2023-03-03T12:10:35.392Z,52.16
2023-03-03T12:11:54.088Z,51.14
2023-03-03T12:13:29.452Z,50.60
2023-03-03T12:14:53.496Z,50.38
2023-03-03T12:16:07.153Z,49.80
2023-03-03T12:17:26.930Z,49.61
2023-03-03T12:18:35.125Z,49.73
2023-03-03T12:20:30.873Z,49.60
2023-03-03T12:21:56.959Z,48.73
2023-03-03T12:23:19.316Z,48.70
2023-03-03T12:24:50.017Z,48.95
2023-03-03T12:26:02.118Z,48.31
2023-03-03T12:27:06.616Z,47.54
2023-03-03T12:28:19.902Z,47.40
2023-03-03T12:29:36.772Z,45.79
2023-03-03T12:31:14.154Z,44.60
2023-03-03T12:32:34.572Z,46.78
2023-03-03T12:33:56.506Z,46.21
2023-03-03T12:35:10.345Z,45.95
2023-03-03T12:36:30.042Z,46.01
2023-03-03T12:37:45.941Z,46.25
2023-03-03T12:38:57.997Z,46.53
2023-03-03T12:40:13.141Z,44.43
2023-03-03T12:41:31.941Z,44.89
2023-03-03T12:43:01.113Z,44.93
2023-03-03T12:44:25.757Z,44.40
2023-03-03T12:45:36.454Z,43.40
2023-03-03T12:46:56.452Z,42.74
2023-03-03T12:48:26.883Z,43.76
2023-03-03T12:50:06.987Z,43.25
2023-03-03T12:51:17.961Z,41.39
2023-03-03T12:53:10.753Z,40.79
2023-03-03T12:54:38.444Z,40.95
2023-03-03T12:55:45.942Z,39.41
2023-03-03T12:56:54.353Z,40.98
2023-03-03T12:58:14.522Z,41.42
2023-03-03T12:59:49.322Z,41.32
2023-03-03T13:00:57.408Z,42.10
2023-03-03T13:02:21.236Z,41.13
2023-03-03T13:04:01.454Z,40.95
2023-03-03T13:05:21.168Z,41.16
2023-03-03T13:06:46.401Z,39.79
2023-03-03T13:08:20.146Z,39.19
2023-03-03T13:09:36.677Z,39.75
2023-03-03T13:10:44.105Z,38.90
2023-03-03T13:12:30.613Z,38.50
2023-03-03T13:13:40.127Z,38.49
2023-03-03T13:15:01.608Z,37.85
2023-03-03T13:16:16.851Z,39.14
2023-03-03T13:17:52.175Z,39.06
2023-03-03T13:19:02.286Z,39.73
2023-03-03T13:20:16.905Z,40.45
2023-03-03T13:21:25.105Z,39.74
2023-03-03T13:22:46.106Z,40.39
2023-03-03T13:24:15.456Z,41.25
2023-03-03T13:25:45.138Z,40.60
2023-03-03T13:26:57.388Z,40.82
2023-03-03T13:28:40.723Z,40.81
2023-03-03T13:29:50.789Z,41.89
2023-03-03T13:30:57.117Z,42.11
2023-03-03T13:32:11.630Z,42.86
2023-03-03T13:33:24.261Z,41.58
2023-03-03T13:34:47.311Z,40.81
2023-03-03T13:36:09.960Z,40.73
2023-03-03T13:37:21.212Z,41.06
2023-03-03T13:38:51.536Z,40.79
2023-03-03T13:40:02.896Z,41.02
2023-03-03T13:41:31.727Z,40.20
2023-03-03T13:42:40.463Z,39.93
2023-03-03T13:44:11.075Z,38.78
2023-03-03T13:45:35.734Z,39.93
2023-03-03T13:47:15.040Z,39.65
2023-03-03T13:48:42.551Z,39.45
2023-03-03T13:49:54.635Z,37.34
2023-03-03T13:51:02.284Z,37.77
2023-03-03T13:52:09.443Z,38.05
2023-03-03T13:53:41.517Z,38.24
2023-03-03T13:55:10.613Z,38.93
2023-03-03T13:56:40.058Z,38.96
2023-03-03T13:58:19.764Z,38.49
2023-03-03T13:59:39.011Z,38.23
2023-03-03T14:00:54.009Z,36.61
2023-03-03T14:02:27.955Z,37.90
2023-03-03T14:03:35.230Z,38.06
2023-03-03T14:05:02.814Z,37.14
2023-03-03T14:06:11.256Z,36.88
2023-03-03T14:07:21.155Z,36.12
2023-03-03T14:08:46.290Z,35.79
2023-03-03T14:10:00.125Z,36.15
2023-03-03T14:11:11.375Z,35.53
2023-03-03T14:12:18.595Z,35.32
2023-03-03T14:13:35.505Z,35.26
2023-03-03T14:14:46.120Z,35.32
2023-03-03T14:15:56.643Z,35.00
2023-03-03T14:17:12.013Z,34.31
2023-03-03T14:18:35.825Z,34.20
2023-03-03T14:19:47.397Z,34.28
2023-03-03T14:20:55.354Z,34.28
2023-03-03T14:22:24.202Z,33.89
2023-03-03T14:23:56.678Z,34.24
2023-03-03T14:25:09.836Z,34.11
2023-03-03T14:26:12.077Z,34.01
2023-03-03T14:27:24.463Z,34.07
2023-03-03T14:28:28.882Z,33.98
2023-03-03T14:29:32.462Z,34.57
2023-03-03T14:30:39.924Z,34.78
2023-03-03T14:31:42.800Z,35.76
2023-03-03T14:32:59.757Z,35.95
2023-03-03T14:34:22.800Z,36.42
2023-03-03T14:35:29.879Z,36.93
2023-03-03T14:36:35.973Z,36.67
2023-03-03T14:37:45.807Z,37.07
2023-03-03T14:38:48.248Z,37.50
2023-03-03T14:40:20.499Z,37.92
2023-03-03T14:41:35.825Z,38.54
2023-03-03T14:42:48.130Z,38.90
2023-03-03T14:44:01.003Z,39.35
2023-03-03T14:45:29.182Z,40.01